RYR8NB EPKK-LGKR
Flight info
| Callsign | RYR8NB |
|---|---|
| Flight time | 1h 45m |
| Altitude | 35000 |
| Route | BABKO DCT NIDOK DCT PARAK DCT KOTUS DCT AKIKA DCT LIMJA N732 PITAS |
| Aircraft | B738/M-SDE2E3FGHIRWXY/LB1 |
Departure
| Time | 2026-05-07 15:45 |
|---|---|
| Airport | Kraków John Paul II International Airport (EPKK) |
Arrival
| Time | 2026-05-07 17:31 |
|---|---|
| Airport | Corfu Ioannis Kapodistrias International Airport (LGKR) |
| Time | Latitude | Longitude | Altitude | Speed | Heading |
|---|---|---|---|---|---|
| 2026-05-07 15:18 | 50.07316 | 19.79920 | 789 ft | 0 kts | 167° |
| 2026-05-07 15:35 | 50.07347 | 19.79910 | 788 ft | 4 kts | 167° |
| 2026-05-07 15:35 | 50.07364 | 19.79903 | 788 ft | 4 kts | 156° |
| 2026-05-07 15:35 | 50.07380 | 19.79884 | 788 ft | 4 kts | 88° |
| 2026-05-07 15:36 | 50.07376 | 19.79850 | 788 ft | 0 kts | 78° |
| 2026-05-07 15:38 | 50.07383 | 19.79901 | 788 ft | 9 kts | 77° |
| 2026-05-07 15:38 | 50.07403 | 19.80035 | 788 ft | 15 kts | 77° |
| 2026-05-07 15:39 | 50.07425 | 19.80192 | 788 ft | 15 kts | 77° |
| 2026-05-07 15:39 | 50.07450 | 19.80342 | 788 ft | 14 kts | 63° |
| 2026-05-07 15:39 | 50.07533 | 19.80408 | 788 ft | 13 kts | 17° |
| 2026-05-07 15:39 | 50.07622 | 19.80412 | 790 ft | 13 kts | 347° |
| 2026-05-07 15:40 | 50.07708 | 19.80381 | 790 ft | 13 kts | 347° |
| 2026-05-07 15:40 | 50.07788 | 19.80354 | 790 ft | 8 kts | 348° |
| 2026-05-07 15:40 | 50.07826 | 19.80341 | 790 ft | 3 kts | 348° |
| 2026-05-07 15:40 | 50.07837 | 19.80338 | 790 ft | 0 kts | 348° |
| 2026-05-07 15:43 | 50.07866 | 19.80328 | 790 ft | 10 kts | 348° |
| 2026-05-07 15:43 | 50.07948 | 19.80301 | 789 ft | 13 kts | 348° |
| 2026-05-07 15:43 | 50.08009 | 19.80221 | 789 ft | 12 kts | 282° |
| 2026-05-07 15:44 | 50.08005 | 19.80139 | 789 ft | 0 kts | 258° |
| 2026-05-07 15:44 | 50.08003 | 19.80129 | 790 ft | 5 kts | 258° |
| 2026-05-07 15:44 | 50.07952 | 19.79762 | 789 ft | 71 kts | 257° |
| 2026-05-07 15:45 | 50.07797 | 19.78650 | 791 ft | 137 kts | 258° |
| 2026-05-07 15:45 | 50.07568 | 19.76994 | 1082 ft | 164 kts | 257° |
| 2026-05-07 15:45 | 50.07320 | 19.75242 | 1898 ft | 165 kts | 256° |
| 2026-05-07 15:45 | 50.07048 | 19.73515 | 2820 ft | 163 kts | 257° |
| 2026-05-07 15:46 | 50.06565 | 19.70026 | 4433 ft | 171 kts | 257° |
| 2026-05-07 15:46 | 50.06279 | 19.68060 | 4732 ft | 199 kts | 252° |
| 2026-05-07 15:46 | 50.05479 | 19.66170 | 4921 ft | 224 kts | 223° |
| 2026-05-07 15:47 | 50.04077 | 19.64934 | 5315 ft | 240 kts | 197° |
| 2026-05-07 15:47 | 50.02342 | 19.64809 | 5634 ft | 263 kts | 174° |
| 2026-05-07 15:47 | 50.00522 | 19.65365 | 6276 ft | 274 kts | 169° |
| 2026-05-07 15:47 | 49.98670 | 19.66055 | 7224 ft | 272 kts | 169° |
| 2026-05-07 15:48 | 49.96826 | 19.66739 | 8104 ft | 275 kts | 169° |
| 2026-05-07 15:48 | 49.94947 | 19.67406 | 8928 ft | 278 kts | 170° |
| 2026-05-07 15:48 | 49.93048 | 19.68060 | 9789 ft | 281 kts | 170° |
| 2026-05-07 15:48 | 49.91115 | 19.68715 | 10411 ft | 291 kts | 170° |
| 2026-05-07 15:49 | 49.89039 | 19.69341 | 10593 ft | 315 kts | 178° |
| 2026-05-07 15:49 | 49.86834 | 19.68925 | 10976 ft | 326 kts | 200° |
| 2026-05-07 15:49 | 49.84775 | 19.67384 | 11702 ft | 329 kts | 209° |
| 2026-05-07 15:49 | 49.82779 | 19.65636 | 12513 ft | 331 kts | 210° |
| 2026-05-07 15:50 | 49.80767 | 19.63841 | 13288 ft | 335 kts | 210° |
| 2026-05-07 15:50 | 49.78735 | 19.62039 | 14050 ft | 338 kts | 210° |
| 2026-05-07 15:50 | 49.76680 | 19.60234 | 14767 ft | 340 kts | 209° |
| 2026-05-07 15:50 | 49.74611 | 19.58434 | 15493 ft | 342 kts | 209° |
| 2026-05-07 15:51 | 49.72527 | 19.56631 | 16212 ft | 344 kts | 208° |
| 2026-05-07 15:51 | 49.70455 | 19.54845 | 16896 ft | 346 kts | 208° |
| 2026-05-07 15:51 | 49.68341 | 19.53027 | 17561 ft | 350 kts | 208° |
| 2026-05-07 15:51 | 49.66205 | 19.51192 | 18266 ft | 352 kts | 208° |
| 2026-05-07 15:52 | 49.64053 | 19.49346 | 18872 ft | 354 kts | 208° |
| 2026-05-07 15:52 | 49.61893 | 19.47496 | 19436 ft | 357 kts | 208° |
| 2026-05-07 15:52 | 49.59720 | 19.45615 | 20029 ft | 359 kts | 209° |
| 2026-05-07 15:52 | 49.57548 | 19.43690 | 20612 ft | 361 kts | 209° |
| 2026-05-07 15:53 | 49.55367 | 19.41744 | 21218 ft | 363 kts | 209° |
| 2026-05-07 15:53 | 49.53178 | 19.39787 | 21794 ft | 365 kts | 209° |
| 2026-05-07 15:53 | 49.50974 | 19.37821 | 22315 ft | 368 kts | 209° |
| 2026-05-07 15:53 | 49.48747 | 19.35838 | 22861 ft | 371 kts | 209° |
| 2026-05-07 15:54 | 49.46508 | 19.33850 | 23397 ft | 373 kts | 209° |
| 2026-05-07 15:54 | 49.44254 | 19.31852 | 23869 ft | 375 kts | 209° |
| 2026-05-07 15:54 | 49.41990 | 19.29848 | 24317 ft | 377 kts | 209° |
| 2026-05-07 15:54 | 49.39708 | 19.27831 | 24774 ft | 378 kts | 209° |
| 2026-05-07 15:55 | 49.37420 | 19.25812 | 25210 ft | 381 kts | 209° |
| 2026-05-07 15:55 | 49.35126 | 19.23788 | 25621 ft | 383 kts | 210° |
| 2026-05-07 15:55 | 49.32811 | 19.21749 | 26028 ft | 384 kts | 210° |
| 2026-05-07 15:55 | 49.30517 | 19.19730 | 26442 ft | 386 kts | 210° |
| 2026-05-07 15:56 | 49.28179 | 19.17676 | 26852 ft | 387 kts | 210° |
| 2026-05-07 15:56 | 49.25835 | 19.15617 | 27242 ft | 389 kts | 210° |
| 2026-05-07 15:56 | 49.23482 | 19.13553 | 27638 ft | 390 kts | 210° |
| 2026-05-07 15:56 | 49.21116 | 19.11481 | 28029 ft | 392 kts | 210° |
| 2026-05-07 15:57 | 49.18739 | 19.09400 | 28314 ft | 395 kts | 210° |
| 2026-05-07 15:57 | 49.16343 | 19.07305 | 28675 ft | 397 kts | 210° |
| 2026-05-07 15:57 | 49.13940 | 19.05208 | 29067 ft | 398 kts | 210° |
| 2026-05-07 15:57 | 49.11532 | 19.03108 | 29476 ft | 399 kts | 210° |
| 2026-05-07 15:58 | 49.09148 | 19.01032 | 29868 ft | 399 kts | 210° |
| 2026-05-07 15:58 | 49.06747 | 18.98942 | 30327 ft | 396 kts | 210° |
| 2026-05-07 15:58 | 49.04357 | 18.96864 | 30819 ft | 392 kts | 210° |
| 2026-05-07 15:58 | 49.01996 | 18.94814 | 31290 ft | 389 kts | 210° |
| 2026-05-07 15:59 | 48.99648 | 18.92778 | 31709 ft | 387 kts | 210° |
| 2026-05-07 15:59 | 48.97314 | 18.90754 | 32112 ft | 385 kts | 210° |
| 2026-05-07 15:59 | 48.94994 | 18.88745 | 32518 ft | 383 kts | 210° |
| 2026-05-07 15:59 | 48.92683 | 18.86747 | 32939 ft | 380 kts | 210° |
| 2026-05-07 16:00 | 48.91159 | 18.85440 | 33213 ft | 379 kts | 208° |
| 2026-05-07 16:00 | 48.87798 | 18.83859 | 33686 ft | 382 kts | 191° |
| 2026-05-07 16:00 | 48.85141 | 18.83659 | 34048 ft | 385 kts | 182° |
| 2026-05-07 16:00 | 48.82472 | 18.84331 | 34234 ft | 396 kts | 169° |
| 2026-05-07 16:01 | 48.79837 | 18.85599 | 34397 ft | 399 kts | 168° |
| 2026-05-07 16:01 | 48.77195 | 18.86937 | 34552 ft | 402 kts | 167° |
| 2026-05-07 16:01 | 48.74542 | 18.88297 | 34761 ft | 403 kts | 167° |
| 2026-05-07 16:01 | 48.71887 | 18.89652 | 34948 ft | 403 kts | 167° |
| 2026-05-07 16:02 | 48.69219 | 18.90999 | 34987 ft | 405 kts | 167° |
| 2026-05-07 16:02 | 48.63850 | 18.93671 | 34998 ft | 406 kts | 167° |
| 2026-05-07 16:03 | 48.58494 | 18.96311 | 34989 ft | 404 kts | 167° |
| 2026-05-07 16:03 | 48.53161 | 18.98925 | 34986 ft | 402 kts | 167° |
| 2026-05-07 16:04 | 48.47857 | 19.01517 | 34982 ft | 400 kts | 167° |
| 2026-05-07 16:04 | 48.42564 | 19.04094 | 35005 ft | 405 kts | 168° |
| 2026-05-07 16:05 | 48.37178 | 19.06712 | 34997 ft | 408 kts | 167° |
| 2026-05-07 16:05 | 48.31757 | 19.09344 | 34988 ft | 410 kts | 167° |
| 2026-05-07 16:06 | 48.26314 | 19.11982 | 34987 ft | 411 kts | 167° |
| 2026-05-07 16:06 | 48.20871 | 19.14614 | 34981 ft | 410 kts | 168° |
| 2026-05-07 16:07 | 48.15436 | 19.17236 | 34982 ft | 410 kts | 168° |
| 2026-05-07 16:07 | 48.10020 | 19.19844 | 34982 ft | 408 kts | 168° |
| 2026-05-07 16:08 | 48.04621 | 19.22436 | 34978 ft | 407 kts | 168° |
| 2026-05-07 16:08 | 47.99278 | 19.24996 | 34986 ft | 405 kts | 168° |
| 2026-05-07 16:09 | 47.93913 | 19.27560 | 34996 ft | 405 kts | 168° |
| 2026-05-07 16:09 | 47.88534 | 19.30124 | 34985 ft | 406 kts | 168° |
| 2026-05-07 16:10 | 47.83156 | 19.32683 | 34983 ft | 405 kts | 168° |
| 2026-05-07 16:10 | 47.77787 | 19.35234 | 34981 ft | 405 kts | 168° |
| 2026-05-07 16:11 | 47.72426 | 19.37774 | 34991 ft | 405 kts | 168° |
| 2026-05-07 16:11 | 47.67052 | 19.40314 | 34991 ft | 405 kts | 168° |
| 2026-05-07 16:12 | 47.61663 | 19.42856 | 34997 ft | 407 kts | 168° |
| 2026-05-07 16:12 | 47.56253 | 19.45402 | 35002 ft | 410 kts | 168° |
| 2026-05-07 16:13 | 47.50771 | 19.47974 | 34983 ft | 415 kts | 168° |
| 2026-05-07 16:13 | 47.45272 | 19.50554 | 34986 ft | 415 kts | 168° |
| 2026-05-07 16:14 | 47.39794 | 19.53118 | 34985 ft | 415 kts | 168° |
| 2026-05-07 16:14 | 47.34277 | 19.55693 | 34994 ft | 416 kts | 168° |
| 2026-05-07 16:15 | 47.28757 | 19.58264 | 34990 ft | 416 kts | 168° |
| 2026-05-07 16:15 | 47.23233 | 19.60830 | 34996 ft | 417 kts | 168° |
| 2026-05-07 16:16 | 47.17696 | 19.63398 | 35007 ft | 417 kts | 168° |
| 2026-05-07 16:16 | 47.12156 | 19.65961 | 35013 ft | 417 kts | 168° |
| 2026-05-07 16:17 | 47.06616 | 19.68518 | 35010 ft | 418 kts | 168° |
| 2026-05-07 16:17 | 47.01083 | 19.71066 | 35020 ft | 418 kts | 168° |
| 2026-05-07 16:18 | 46.95516 | 19.73625 | 35018 ft | 419 kts | 168° |
| 2026-05-07 16:18 | 46.89984 | 19.76162 | 35017 ft | 419 kts | 168° |
| 2026-05-07 16:19 | 46.84404 | 19.78715 | 35017 ft | 420 kts | 168° |
| 2026-05-07 16:19 | 46.78827 | 19.81262 | 35018 ft | 420 kts | 168° |
| 2026-05-07 16:20 | 46.73238 | 19.83808 | 35018 ft | 421 kts | 167° |
| 2026-05-07 16:20 | 46.67657 | 19.86346 | 35019 ft | 421 kts | 167° |
| 2026-05-07 16:21 | 46.62064 | 19.88882 | 35024 ft | 425 kts | 167° |
| 2026-05-07 16:21 | 46.57281 | 19.90814 | 35012 ft | 428 kts | 176° |
| 2026-05-07 16:22 | 46.51353 | 19.90912 | 35029 ft | 425 kts | 187° |
| 2026-05-07 16:22 | 46.45432 | 19.90347 | 35011 ft | 427 kts | 187° |
| 2026-05-07 16:23 | 46.39486 | 19.89813 | 35010 ft | 428 kts | 187° |
| 2026-05-07 16:23 | 46.33530 | 19.89314 | 35009 ft | 428 kts | 187° |
| 2026-05-07 16:24 | 46.27593 | 19.88832 | 35011 ft | 427 kts | 187° |
| 2026-05-07 16:24 | 46.21659 | 19.88352 | 35012 ft | 427 kts | 187° |
| 2026-05-07 16:25 | 46.15734 | 19.87875 | 34998 ft | 425 kts | 187° |
| 2026-05-07 16:25 | 46.09834 | 19.87400 | 35008 ft | 424 kts | 187° |
| 2026-05-07 16:26 | 46.03962 | 19.86927 | 35012 ft | 422 kts | 187° |
| 2026-05-07 16:26 | 45.98133 | 19.86459 | 35002 ft | 421 kts | 187° |
| 2026-05-07 16:27 | 45.92283 | 19.85990 | 35004 ft | 421 kts | 187° |
| 2026-05-07 16:27 | 45.86434 | 19.85522 | 35009 ft | 421 kts | 187° |
| 2026-05-07 16:28 | 45.80577 | 19.85054 | 35000 ft | 422 kts | 187° |
| 2026-05-07 16:28 | 45.74709 | 19.84586 | 35007 ft | 423 kts | 187° |
| 2026-05-07 16:29 | 45.68821 | 19.84118 | 35001 ft | 424 kts | 187° |
| 2026-05-07 16:29 | 45.62911 | 19.83650 | 35005 ft | 426 kts | 187° |
| 2026-05-07 16:30 | 45.56988 | 19.83181 | 34999 ft | 427 kts | 187° |
| 2026-05-07 16:30 | 45.51086 | 19.82715 | 35002 ft | 428 kts | 187° |
| 2026-05-07 16:31 | 45.45127 | 19.82246 | 35002 ft | 429 kts | 187° |
| 2026-05-07 16:31 | 45.39122 | 19.81774 | 35001 ft | 430 kts | 186° |
| 2026-05-07 16:32 | 45.33167 | 19.81307 | 35000 ft | 431 kts | 187° |
| 2026-05-07 16:32 | 45.27182 | 19.80838 | 35001 ft | 431 kts | 187° |
| 2026-05-07 16:33 | 45.21187 | 19.80370 | 35003 ft | 431 kts | 187° |
| 2026-05-07 16:33 | 45.15202 | 19.79904 | 35011 ft | 431 kts | 187° |
| 2026-05-07 16:34 | 45.09213 | 19.79438 | 34998 ft | 431 kts | 187° |
| 2026-05-07 16:34 | 45.03229 | 19.78974 | 35002 ft | 431 kts | 187° |
| 2026-05-07 16:35 | 44.97246 | 19.78510 | 35004 ft | 430 kts | 187° |
| 2026-05-07 16:35 | 44.91268 | 19.78048 | 34995 ft | 430 kts | 187° |
| 2026-05-07 16:36 | 44.85277 | 19.77586 | 35009 ft | 430 kts | 187° |
| 2026-05-07 16:36 | 44.79300 | 19.77126 | 35005 ft | 430 kts | 187° |
| 2026-05-07 16:37 | 44.73319 | 19.76666 | 35006 ft | 430 kts | 187° |
| 2026-05-07 16:37 | 44.67325 | 19.76207 | 35000 ft | 431 kts | 187° |
| 2026-05-07 16:38 | 44.61372 | 19.75751 | 35001 ft | 431 kts | 187° |
| 2026-05-07 16:38 | 44.55372 | 19.75293 | 35013 ft | 432 kts | 187° |
| 2026-05-07 16:39 | 44.49362 | 19.74835 | 35023 ft | 432 kts | 187° |
| 2026-05-07 16:39 | 44.43347 | 19.74378 | 35014 ft | 433 kts | 187° |
| 2026-05-07 16:40 | 44.37318 | 19.73920 | 35008 ft | 434 kts | 187° |
| 2026-05-07 16:40 | 44.31282 | 19.73463 | 35025 ft | 434 kts | 187° |
| 2026-05-07 16:41 | 44.25238 | 19.73006 | 35025 ft | 435 kts | 187° |
| 2026-05-07 16:41 | 44.19219 | 19.72553 | 35023 ft | 436 kts | 187° |
| 2026-05-07 16:42 | 44.13231 | 19.72102 | 35028 ft | 436 kts | 187° |
| 2026-05-07 16:42 | 44.07161 | 19.71646 | 35020 ft | 437 kts | 187° |
| 2026-05-07 16:43 | 44.01076 | 19.71190 | 35024 ft | 439 kts | 187° |
| 2026-05-07 16:43 | 43.94972 | 19.70733 | 35018 ft | 439 kts | 187° |
| 2026-05-07 16:44 | 43.88862 | 19.70278 | 35020 ft | 439 kts | 187° |
| 2026-05-07 16:44 | 43.82786 | 19.69825 | 35026 ft | 439 kts | 187° |
| 2026-05-07 16:45 | 43.76664 | 19.69370 | 35025 ft | 440 kts | 187° |
| 2026-05-07 16:45 | 43.70564 | 19.68918 | 35027 ft | 440 kts | 187° |
| 2026-05-07 16:46 | 43.64434 | 19.68464 | 35025 ft | 440 kts | 188° |
| 2026-05-07 16:46 | 43.58310 | 19.68011 | 35031 ft | 440 kts | 187° |
| 2026-05-07 16:47 | 43.52179 | 19.67559 | 35026 ft | 441 kts | 187° |
| 2026-05-07 16:47 | 43.46080 | 19.67110 | 35031 ft | 442 kts | 188° |
| 2026-05-07 16:48 | 43.39921 | 19.66658 | 35039 ft | 444 kts | 188° |
| 2026-05-07 16:48 | 43.33758 | 19.66206 | 35045 ft | 445 kts | 188° |
| 2026-05-07 16:49 | 43.27547 | 19.65752 | 35043 ft | 446 kts | 188° |
| 2026-05-07 16:49 | 43.21338 | 19.65299 | 35050 ft | 447 kts | 188° |
| 2026-05-07 16:50 | 43.15121 | 19.64888 | 35048 ft | 449 kts | 185° |
| 2026-05-07 16:50 | 43.08842 | 19.65172 | 35056 ft | 452 kts | 181° |
| 2026-05-07 16:51 | 43.02561 | 19.65675 | 35050 ft | 452 kts | 181° |
| 2026-05-07 16:51 | 42.96289 | 19.66141 | 35065 ft | 451 kts | 182° |
| 2026-05-07 16:52 | 42.90028 | 19.66554 | 35068 ft | 451 kts | 182° |
| 2026-05-07 16:52 | 42.83799 | 19.66943 | 35068 ft | 450 kts | 182° |
| 2026-05-07 16:53 | 42.77528 | 19.67329 | 35071 ft | 451 kts | 182° |
| 2026-05-07 16:53 | 42.71262 | 19.67716 | 35077 ft | 451 kts | 182° |
| 2026-05-07 16:54 | 42.65004 | 19.68104 | 35094 ft | 448 kts | 182° |
| 2026-05-07 16:54 | 42.58750 | 19.68490 | 35089 ft | 449 kts | 182° |
| 2026-05-07 16:55 | 42.52515 | 19.68874 | 35090 ft | 449 kts | 182° |
| 2026-05-07 16:55 | 42.46250 | 19.69259 | 35085 ft | 450 kts | 182° |
| 2026-05-07 16:56 | 42.40036 | 19.69640 | 35092 ft | 450 kts | 182° |
| 2026-05-07 16:56 | 42.30628 | 19.70217 | 35093 ft | 451 kts | 182° |
| 2026-05-07 16:57 | 42.24356 | 19.70600 | 35088 ft | 451 kts | 182° |
| 2026-05-07 16:57 | 42.18072 | 19.70984 | 35086 ft | 451 kts | 182° |
| 2026-05-07 16:58 | 42.11797 | 19.71366 | 35076 ft | 451 kts | 182° |
| 2026-05-07 16:58 | 42.05524 | 19.71747 | 35081 ft | 450 kts | 182° |
| 2026-05-07 16:59 | 41.99272 | 19.72126 | 35073 ft | 450 kts | 182° |
| 2026-05-07 16:59 | 41.93028 | 19.72504 | 35070 ft | 449 kts | 182° |
| 2026-05-07 17:00 | 41.86789 | 19.72880 | 35069 ft | 449 kts | 182° |
| 2026-05-07 17:00 | 41.80593 | 19.73253 | 35077 ft | 449 kts | 182° |
| 2026-05-07 17:01 | 41.74308 | 19.73631 | 35072 ft | 450 kts | 182° |
| 2026-05-07 17:01 | 41.68084 | 19.74004 | 35061 ft | 450 kts | 182° |
| 2026-05-07 17:02 | 41.61817 | 19.74380 | 35070 ft | 451 kts | 182° |
| 2026-05-07 17:02 | 41.55535 | 19.74755 | 35074 ft | 452 kts | 182° |
| 2026-05-07 17:03 | 41.49223 | 19.75131 | 35076 ft | 454 kts | 182° |
| 2026-05-07 17:03 | 41.42951 | 19.75505 | 35080 ft | 454 kts | 182° |
| 2026-05-07 17:04 | 41.36637 | 19.75888 | 35073 ft | 454 kts | 182° |
| 2026-05-07 17:04 | 41.30315 | 19.76260 | 35076 ft | 455 kts | 182° |
| 2026-05-07 17:05 | 41.23988 | 19.76632 | 35080 ft | 455 kts | 182° |
| 2026-05-07 17:05 | 41.17664 | 19.77005 | 35082 ft | 454 kts | 182° |
| 2026-05-07 17:06 | 41.12402 | 19.77315 | 35072 ft | 455 kts | 183° |
| 2026-05-07 17:06 | 41.06079 | 19.77688 | 35069 ft | 455 kts | 183° |
| 2026-05-07 17:07 | 40.99740 | 19.78060 | 35060 ft | 456 kts | 183° |
| 2026-05-07 17:07 | 40.93411 | 19.78432 | 35062 ft | 455 kts | 183° |
| 2026-05-07 17:08 | 40.87114 | 19.78800 | 35056 ft | 455 kts | 183° |
| 2026-05-07 17:08 | 40.80775 | 19.79171 | 35068 ft | 456 kts | 183° |
| 2026-05-07 17:09 | 40.74411 | 19.79540 | 34703 ft | 462 kts | 183° |
| 2026-05-07 17:09 | 40.71203 | 19.79726 | 34379 ft | 462 kts | 183° |
| 2026-05-07 17:09 | 40.67988 | 19.79913 | 33942 ft | 462 kts | 183° |
| 2026-05-07 17:10 | 40.64786 | 19.80100 | 33492 ft | 462 kts | 183° |
| 2026-05-07 17:10 | 40.61565 | 19.80287 | 33056 ft | 462 kts | 183° |
| 2026-05-07 17:10 | 40.58342 | 19.80475 | 32620 ft | 462 kts | 182° |
| 2026-05-07 17:10 | 40.55135 | 19.80661 | 32220 ft | 461 kts | 182° |
| 2026-05-07 17:11 | 40.51923 | 19.80847 | 31809 ft | 462 kts | 182° |
| 2026-05-07 17:11 | 40.48714 | 19.81033 | 31397 ft | 462 kts | 182° |
| 2026-05-07 17:11 | 40.45492 | 19.81218 | 30979 ft | 464 kts | 182° |
| 2026-05-07 17:11 | 40.42259 | 19.81404 | 30504 ft | 466 kts | 181° |
| 2026-05-07 17:12 | 40.39018 | 19.81591 | 30076 ft | 466 kts | 181° |
| 2026-05-07 17:12 | 40.35816 | 19.81775 | 29573 ft | 466 kts | 181° |
| 2026-05-07 17:12 | 40.32585 | 19.81963 | 29143 ft | 463 kts | 181° |
| 2026-05-07 17:12 | 40.29367 | 19.82150 | 28718 ft | 462 kts | 181° |
| 2026-05-07 17:13 | 40.26154 | 19.82335 | 28257 ft | 462 kts | 181° |
| 2026-05-07 17:13 | 40.22948 | 19.82519 | 27817 ft | 462 kts | 181° |
| 2026-05-07 17:13 | 40.19734 | 19.82702 | 27385 ft | 463 kts | 181° |
| 2026-05-07 17:13 | 40.16512 | 19.82886 | 26932 ft | 464 kts | 181° |
| 2026-05-07 17:14 | 40.13307 | 19.83071 | 26390 ft | 459 kts | 181° |
| 2026-05-07 17:14 | 40.10114 | 19.83254 | 25593 ft | 460 kts | 181° |
| 2026-05-07 17:14 | 40.06924 | 19.83438 | 24900 ft | 458 kts | 180° |
| 2026-05-07 17:14 | 40.03754 | 19.83621 | 24295 ft | 453 kts | 181° |
| 2026-05-07 17:15 | 40.00623 | 19.83798 | 23746 ft | 448 kts | 180° |
| 2026-05-07 17:15 | 39.97525 | 19.83974 | 23104 ft | 443 kts | 180° |
| 2026-05-07 17:15 | 39.94454 | 19.84148 | 22433 ft | 439 kts | 180° |
| 2026-05-07 17:15 | 39.91414 | 19.84321 | 21778 ft | 435 kts | 180° |
| 2026-05-07 17:16 | 39.88408 | 19.84522 | 21175 ft | 431 kts | 179° |
| 2026-05-07 17:16 | 39.85474 | 19.84246 | 20669 ft | 416 kts | 199° |
| 2026-05-07 17:16 | 39.82962 | 19.82577 | 20170 ft | 402 kts | 223° |
| 2026-05-07 17:16 | 39.81243 | 19.79804 | 19613 ft | 392 kts | 246° |
| 2026-05-07 17:17 | 39.80591 | 19.76418 | 19039 ft | 387 kts | 269° |
| 2026-05-07 17:17 | 39.81060 | 19.73002 | 18485 ft | 385 kts | 286° |
| 2026-05-07 17:17 | 39.81588 | 19.69642 | 18127 ft | 375 kts | 269° |
| 2026-05-07 17:17 | 39.81037 | 19.66394 | 17714 ft | 368 kts | 244° |
| 2026-05-07 17:18 | 39.79438 | 19.63849 | 17356 ft | 365 kts | 218° |
| 2026-05-07 17:18 | 39.77261 | 19.62299 | 17079 ft | 357 kts | 213° |
| 2026-05-07 17:18 | 39.75408 | 19.60212 | 16520 ft | 353 kts | 228° |
| 2026-05-07 17:18 | 39.73494 | 19.58260 | 15961 ft | 349 kts | 211° |
| 2026-05-07 17:19 | 39.71324 | 19.56914 | 15460 ft | 342 kts | 206° |
| 2026-05-07 17:19 | 39.69151 | 19.55708 | 14951 ft | 337 kts | 205° |
| 2026-05-07 17:19 | 39.67005 | 19.54542 | 14446 ft | 333 kts | 205° |
| 2026-05-07 17:19 | 39.64876 | 19.53388 | 13960 ft | 331 kts | 205° |
| 2026-05-07 17:20 | 39.62761 | 19.52242 | 13413 ft | 328 kts | 205° |
| 2026-05-07 17:20 | 39.60590 | 19.51329 | 12841 ft | 329 kts | 189° |
| 2026-05-07 17:20 | 39.58311 | 19.51503 | 12310 ft | 333 kts | 167° |
| 2026-05-07 17:20 | 39.56233 | 19.52812 | 11795 ft | 335 kts | 146° |
| 2026-05-07 17:21 | 39.54449 | 19.54734 | 11294 ft | 330 kts | 141° |
| 2026-05-07 17:21 | 39.52763 | 19.56719 | 10781 ft | 326 kts | 140° |
| 2026-05-07 17:21 | 39.51200 | 19.58832 | 10263 ft | 323 kts | 132° |
| 2026-05-07 17:21 | 39.49831 | 19.61071 | 9780 ft | 320 kts | 130° |
| 2026-05-07 17:22 | 39.48483 | 19.63344 | 9231 ft | 316 kts | 130° |
| 2026-05-07 17:22 | 39.47156 | 19.65589 | 8700 ft | 312 kts | 129° |
| 2026-05-07 17:22 | 39.45842 | 19.67809 | 8172 ft | 309 kts | 129° |
| 2026-05-07 17:22 | 39.44545 | 19.69997 | 7654 ft | 304 kts | 129° |
| 2026-05-07 17:23 | 39.43264 | 19.72151 | 7143 ft | 300 kts | 129° |
| 2026-05-07 17:23 | 39.41997 | 19.74271 | 6648 ft | 296 kts | 129° |
| 2026-05-07 17:23 | 39.40745 | 19.76356 | 6120 ft | 292 kts | 129° |
| 2026-05-07 17:23 | 39.39505 | 19.78415 | 5593 ft | 288 kts | 129° |
| 2026-05-07 17:24 | 39.38279 | 19.80447 | 5083 ft | 285 kts | 129° |
| 2026-05-07 17:24 | 39.37067 | 19.82456 | 4592 ft | 281 kts | 130° |
| 2026-05-07 17:24 | 39.35877 | 19.84424 | 4146 ft | 275 kts | 129° |
| 2026-05-07 17:24 | 39.34860 | 19.86478 | 3770 ft | 270 kts | 109° |
| 2026-05-07 17:25 | 39.34811 | 19.88841 | 3525 ft | 263 kts | 76° |
| 2026-05-07 17:25 | 39.35572 | 19.90938 | 3314 ft | 254 kts | 58° |
| 2026-05-07 17:25 | 39.36749 | 19.92575 | 3100 ft | 245 kts | 39° |
| 2026-05-07 17:25 | 39.38088 | 19.93861 | 3035 ft | 235 kts | 38° |
| 2026-05-07 17:26 | 39.39355 | 19.95058 | 2974 ft | 217 kts | 38° |
| 2026-05-07 17:26 | 39.40533 | 19.96176 | 2939 ft | 200 kts | 39° |
| 2026-05-07 17:26 | 39.41635 | 19.97199 | 2939 ft | 197 kts | 31° |
| 2026-05-07 17:26 | 39.42957 | 19.97530 | 2923 ft | 198 kts | 351° |
| 2026-05-07 17:27 | 39.44297 | 19.97114 | 2872 ft | 197 kts | 343° |
| 2026-05-07 17:27 | 39.45572 | 19.96625 | 2643 ft | 186 kts | 343° |
| 2026-05-07 17:27 | 39.46775 | 19.96160 | 2450 ft | 177 kts | 343° |
| 2026-05-07 17:27 | 39.47928 | 19.95719 | 2317 ft | 169 kts | 343° |
| 2026-05-07 17:28 | 39.49014 | 19.95308 | 2112 ft | 159 kts | 343° |
| 2026-05-07 17:28 | 39.50067 | 19.94911 | 1871 ft | 157 kts | 343° |
| 2026-05-07 17:28 | 39.51112 | 19.94504 | 1694 ft | 156 kts | 341° |
| 2026-05-07 17:28 | 39.52134 | 19.94027 | 1476 ft | 157 kts | 339° |
| 2026-05-07 17:29 | 39.53135 | 19.93524 | 1290 ft | 150 kts | 338° |
| 2026-05-07 17:29 | 39.54106 | 19.93034 | 1059 ft | 151 kts | 340° |
| 2026-05-07 17:29 | 39.55113 | 19.92579 | 807 ft | 153 kts | 343° |
| 2026-05-07 17:29 | 39.56127 | 19.92236 | 629 ft | 149 kts | 351° |
| 2026-05-07 17:30 | 39.57130 | 19.91980 | 489 ft | 142 kts | 351° |
| 2026-05-07 17:30 | 39.58097 | 19.91747 | 302 ft | 144 kts | 351° |
| 2026-05-07 17:30 | 39.59080 | 19.91497 | 67 ft | 143 kts | 351° |
| 2026-05-07 17:30 | 39.59996 | 19.91262 | 16 ft | 114 kts | 348° |
| 2026-05-07 17:31 | 39.60579 | 19.91111 | 13 ft | 60 kts | 348° |
| 2026-05-07 17:31 | 39.60842 | 19.91042 | 14 ft | 30 kts | 348° |
| 2026-05-07 17:31 | 39.61019 | 19.91020 | 13 ft | 16 kts | 28° |
| 2026-05-07 17:31 | 39.61056 | 19.91078 | 14 ft | 6 kts | 56° |
| 2026-05-07 17:32 | 39.61043 | 19.91122 | 14 ft | 6 kts | 157° |
| 2026-05-07 17:32 | 39.61004 | 19.91140 | 14 ft | 6 kts | 160° |
| 2026-05-07 17:32 | 39.60963 | 19.91150 | 14 ft | 6 kts | 172° |
| 2026-05-07 17:32 | 39.60935 | 19.91155 | 14 ft | 6 kts | 172° |
| 2026-05-07 17:34 | 39.60765 | 19.91259 | 14 ft | 0 kts | 76° |
| 2026-05-07 17:36 | 39.60773 | 19.91306 | 15 ft | 8 kts | 78° |
| 2026-05-07 17:36 | 39.60777 | 19.91342 | 14 ft | 0 kts | 83° |